Time;durP1;ratioP1;P1;durP2;ratioP2;P2;SDS_P1;SDS_P2;PMS_P1;PMS_P2;Temp;Humidity;BMP_temperature;BMP_pressure;BME280_temperature;BME280_humidity;BME280_pressure;Samples;Min_cycle;Max_cycle;Signal;HPM_P1;HPM_P2
2022/05/28 00:02:17;;;;;;;;;;;;;;;;;;5092729;28;20247;-54
2022/05/28 00:04:46;;;;;;;;;;;;;;;;;;5092634;28;20075;-55
2022/05/28 00:07:12;;;;;;;;;;;;;;;;;;5092393;28;19946;-46
2022/05/28 00:09:38;;;;;;;;;;;;;;;;;;5092649;28;20012;-49
2022/05/28 00:12:05;;;;;;;;;;;;;;;;;;5093092;28;19920;-52
2022/05/28 00:14:31;;;;;;;;;;;;;;;;;;5092014;28;19943;-50
2022/05/28 00:16:58;;;;;;;;;;;;;;;;;;5092958;28;19908;-47
2022/05/28 00:19:24;;;;;;;;;;;;;;;;;;5092411;28;19908;-55
2022/05/28 00:21:51;;;;;;;;;;;;;;;;;;5092580;28;19908;-54
2022/05/28 00:24:17;;;;;;;;;;;;;;;;;;5092635;28;20316;-47
2022/05/28 00:26:44;;;;;;;;;;;;;;;;;;5092738;28;19943;-49
2022/05/28 00:29:10;;;;;;;;;;;;;;;;;;5092290;28;19947;-49
2022/05/28 00:31:37;;;;;;;;;;;;;;;;;;5091764;28;20370;-54
2022/05/28 00:34:04;;;;;;;;;;;;;;;;;;5092325;28;19994;-54
2022/05/28 00:36:31;;;;;;;;;;;;;;;;;;5092305;28;19913;-50
2022/05/28 00:38:57;;;;;;;;;;;;;;;;;;5092297;28;19908;-53
2022/05/28 00:41:24;;;;;;;;;;;;;;;;;;5091657;28;19908;-55
2022/05/28 00:43:50;;;;;;;;;;;;;;;;;;5092044;28;19958;-53
2022/05/28 00:46:17;;;;;;;;;;;;;;;;;;5092625;28;19908;-53
2022/05/28 00:48:46;;;;;;;;;;;;;;;;;;5092571;28;19920;-52
2022/05/28 00:51:14;;;;;;;;;;;;;;;;;;5096174;28;20246;-55
2022/05/28 00:53:40;;;;;;;;;;;;;;;;;;5096561;28;19997;-54
2022/05/28 00:56:07;;;;;;;;;;;;;;;;;;5096711;28;19908;-55
2022/05/28 00:58:33;;;;;;;;;;;;;;;;;;5096237;28;19943;-54
2022/05/28 01:01:00;;;;;;;;;;;;;;;;;;5096340;28;20003;-49
2022/05/28 01:03:26;;;;;;;;;;;;;;;;;;5096436;28;19908;-56
2022/05/28 01:05:53;;;;;;;;;;;;;;;;;;5096105;28;19995;-49
2022/05/28 01:08:19;;;;;;;;;;;;;;;;;;5096109;28;19920;-56
2022/05/28 01:10:46;;;;;;;;;;;;;;;;;;5095790;28;19920;-53
2022/05/28 01:13:12;;;;;;;;;;;;;;;;;;5096131;28;20002;-56
2022/05/28 01:15:39;;;;;;;;;;;;;;;;;;5095153;28;19919;-51
2022/05/28 01:18:05;;;;;;;;;;;;;;;;;;5095965;28;20260;-58
2022/05/28 01:20:32;;;;;;;;;;;;;;;;;;5095993;28;19915;-54
2022/05/28 01:22:58;;;;;;;;;;;;;;;;;;5096205;28;19908;-57
2022/05/28 01:25:24;;;;;;;;;;;;;;;;;;5096011;28;20373;-55
2022/05/28 01:27:51;;;;;;;;;;;;;;;;;;5095623;28;19915;-55
2022/05/28 01:30:17;;;;;;;;;;;;;;;;;;5095756;28;19916;-58
2022/05/28 01:32:44;;;;;;;;;;;;;;;;;;5095620;28;20591;-59
2022/05/28 01:35:10;;;;;;;;;;;;;;;;;;5096035;28;20372;-55
2022/05/28 01:37:37;;;;;;;;;;;;;;;;;;5096393;28;19912;-55
2022/05/28 01:40:03;;;;;;;;;;;;;;;;;;5096166;28;19908;-56
2022/05/28 01:42:30;;;;;;;;;;;;;;;;;;5095669;28;19908;-52
2022/05/28 01:44:56;;;;;;;;;;;;;;;;;;5095461;28;19909;-56
2022/05/28 01:47:23;;;;;;;;;;;;;;;;;;5095792;28;19908;-53
2022/05/28 01:49:49;;;;;;;;;;;;;;;;;;5095847;28;19927;-48
2022/05/28 01:52:16;;;;;;;;;;;;;;;;;;5094974;28;19915;-54
2022/05/28 01:54:43;;;;;;;;;;;;;;;;;;5094798;28;19908;-57
2022/05/28 01:57:09;;;;;;;;;;;;;;;;;;5095301;28;19908;-59
2022/05/28 01:59:36;;;;;;;;;;;;;;;;;;5095244;28;19912;-59
2022/05/28 02:02:02;;;;;;;;;;;;;;;;;;5094913;28;19908;-58
2022/05/28 02:04:29;;;;;;;;;;;;;;;;;;5095023;28;19908;-52
2022/05/28 02:06:55;;;;;;;;;;;;;;;;;;5094791;28;20360;-54
2022/05/28 02:09:22;;;;;;;;;;;;;;;;;;5095005;28;20279;-58
2022/05/28 02:11:48;;;;;;;;;;;;;;;;;;5095087;28;20294;-48
2022/05/28 02:14:16;;;;;;;;;;;;;;;;;;5095081;28;19946;-54
2022/05/28 02:16:43;;;;;;;;;;;;;;;;;;5094770;28;20332;-55
2022/05/28 02:19:09;;;;;;;;;;;;;;;;;;5094736;28;19955;-52
2022/05/28 02:21:36;;;;;;;;;;;;;;;;;;5095222;28;19908;-58
2022/05/28 02:24:02;;;;;;;;;;;;;;;;;;5094671;28;20223;-53
2022/05/28 02:26:29;;;;;;;;;;;;;;;;;;5094548;28;19984;-53
2022/05/28 02:28:55;;;;;;;;;;;;;;;;;;5095587;28;19912;-53
2022/05/28 02:31:22;;;;;;;;;;;;;;;;;;5095072;28;19916;-53
2022/05/28 02:33:48;;;;;;;;;;;;;;;;;;5094389;28;19916;-57
2022/05/28 02:36:15;;;;;;;;;;;;;;;;;;5094834;28;19953;-51
2022/05/28 02:38:41;;;;;;;;;;;;;;;;;;5094034;28;20003;-53
2022/05/28 02:41:08;;;;;;;;;;;;;;;;;;5093547;28;19909;-57
2022/05/28 02:43:34;;;;;;;;;;;;;;;;;;5094464;28;20020;-55
2022/05/28 02:46:01;;;;;;;;;;;;;;;;;;5094090;28;20332;-53
2022/05/28 02:48:27;;;;;;;;;;;;;;;;;;5093578;28;20298;-54
2022/05/28 02:50:53;;;;;;;;;;;;;;;;;;5094339;28;19915;-50
2022/05/28 02:53:20;;;;;;;;;;;;;;;;;;5094280;28;19915;-56
2022/05/28 02:55:46;;;;;;;;;;;;;;;;;;5094027;28;19922;-57
2022/05/28 02:58:15;;;;;;;;;;;;;;;;;;5093959;28;19908;-53
2022/05/28 03:00:41;;;;;;;;;;;;;;;;;;5092928;28;19946;-47
2022/05/28 03:03:08;;;;;;;;;;;;;;;;;;5093986;28;19931;-49
2022/05/28 03:05:34;;;;;;;;;;;;;;;;;;5093627;28;19912;-52
2022/05/28 03:08:01;;;;;;;;;;;;;;;;;;5093585;28;19920;-55
2022/05/28 03:10:27;;;;;;;;;;;;;;;;;;5093404;28;19916;-42
2022/05/28 03:12:54;;;;;;;;;;;;;;;;;;5093758;28;19908;-52
2022/05/28 03:15:20;;;;;;;;;;;;;;;;;;5093668;28;20397;-58
2022/05/28 03:17:47;;;;;;;;;;;;;;;;;;5093433;28;20346;-49
2022/05/28 03:20:13;;;;;;;;;;;;;;;;;;5092864;28;19904;-40
2022/05/28 03:22:39;;;;;;;;;;;;;;;;;;5093460;28;19908;-53
2022/05/28 03:25:06;;;;;;;;;;;;;;;;;;5093372;28;19934;-56
2022/05/28 03:27:32;;;;;;;;;;;;;;;;;;5093570;28;20435;-53
2022/05/28 03:29:59;;;;;;;;;;;;;;;;;;5092930;28;19920;-56
2022/05/28 03:32:25;;;;;;;;;;;;;;;;;;5091991;28;19935;-45
2022/05/28 03:34:52;;;;;;;;;;;;;;;;;;5092852;28;19912;-54
2022/05/28 03:37:18;;;;;;;;;;;;;;;;;;5092834;28;20422;-53
2022/05/28 03:39:45;;;;;;;;;;;;;;;;;;5092627;28;19912;-53
2022/05/28 03:42:11;;;;;;;;;;;;;;;;;;5093320;28;19952;-56
2022/05/28 03:44:38;;;;;;;;;;;;;;;;;;5092976;28;19908;-56
2022/05/28 03:47:04;;;;;;;;;;;;;;;;;;5093227;28;20295;-47
2022/05/28 03:49:31;;;;;;;;;;;;;;;;;;5092428;28;20384;-50
2022/05/28 03:51:57;;;;;;;;;;;;;;;;;;5093187;28;19935;-56
2022/05/28 03:54:23;;;;;;;;;;;;;;;;;;5092715;28;19948;-50
2022/05/28 03:56:50;;;;;;;;;;;;;;;;;;5092544;28;19908;-55
2022/05/28 03:59:16;;;;;;;;;;;;;;;;;;5092869;28;19938;-48
2022/05/28 04:01:43;;;;;;;;;;;;;;;;;;5092542;28;20008;-52
2022/05/28 04:04:09;;;;;;;;;;;;;;;;;;5092628;28;19919;-48
2022/05/28 04:06:36;;;;;;;;;;;;;;;;;;5092026;28;19927;-55
2022/05/28 04:09:02;;;;;;;;;;;;;;;;;;5093138;28;19931;-52
2022/05/28 04:11:29;;;;;;;;;;;;;;;;;;5092946;28;19916;-47
2022/05/28 04:13:55;;;;;;;;;;;;;;;;;;5093237;28;20013;-56
2022/05/28 04:16:21;;;;;;;;;;;;;;;;;;5089578;28;20005;-45
2022/05/28 04:18:48;;;;;;;;;;;;;;;;;;5089341;28;19919;-55
2022/05/28 04:21:15;;;;;;;;;;;;;;;;;;5089780;28;19973;-53
2022/05/28 04:23:41;;;;;;;;;;;;;;;;;;5089176;28;19908;-67
2022/05/28 04:26:08;;;;;;;;;;;;;;;;;;5088930;28;20386;-52
2022/05/28 04:28:34;;;;;;;;;;;;;;;;;;5090026;28;20291;-44
2022/05/28 04:31:01;;;;;;;;;;;;;;;;;;5089498;28;20280;-36
2022/05/28 04:33:27;;;;;;;;;;;;;;;;;;5090256;28;19916;-52
2022/05/28 04:35:54;;;;;;;;;;;;;;;;;;5087476;28;19915;-52
2022/05/28 04:38:20;;;;;;;;;;;;;;;;;;5090096;28;19908;-60
2022/05/28 04:40:47;;;;;;;;;;;;;;;;;;5089338;28;19935;-59
2022/05/28 04:43:13;;;;;;;;;;;;;;;;;;5090250;28;19955;-51
2022/05/28 04:45:40;;;;;;;;;;;;;;;;;;5087982;28;19908;-44
2022/05/28 04:48:06;;;;;;;;;;;;;;;;;;5090270;28;19916;-37
2022/05/28 04:50:32;;;;;;;;;;;;;;;;;;5089783;28;20380;-56
2022/05/28 04:52:59;;;;;;;;;;;;;;;;;;5091460;28;20384;-38
2022/05/28 04:55:25;;;;;;;;;;;;;;;;;;5089613;28;19940;-42
2022/05/28 04:57:52;;;;;;;;;;;;;;;;;;5090904;28;19908;-51
2022/05/28 05:00:18;;;;;;;;;;;;;;;;;;5092235;28;19912;-52
2022/05/28 05:02:45;;;;;;;;;;;;;;;;;;5091526;28;20004;-47
2022/05/28 05:05:11;;;;;;;;;;;;;;;;;;5092254;28;19908;-55
2022/05/28 05:07:38;;;;;;;;;;;;;;;;;;5090567;28;19920;-48
2022/05/28 05:10:04;;;;;;;;;;;;;;;;;;5091393;28;19916;-59
2022/05/28 05:12:31;;;;;;;;;;;;;;;;;;5092045;28;20380;-54
2022/05/28 05:14:57;;;;;;;;;;;;;;;;;;5091749;28;20355;-61
2022/05/28 05:17:23;;;;;;;;;;;;;;;;;;5091297;28;19912;-54
2022/05/28 05:19:50;;;;;;;;;;;;;;;;;;5090862;28;19914;-56
2022/05/28 05:22:16;;;;;;;;;;;;;;;;;;5091731;28;19922;-47
2022/05/28 05:24:43;;;;;;;;;;;;;;;;;;5091333;28;20322;-58
2022/05/28 05:27:10;;;;;;;;;;;;;;;;;;5091907;28;20007;-44
2022/05/28 05:29:36;;;;;;;;;;;;;;;;;;5092102;28;19912;-48
2022/05/28 05:32:03;;;;;;;;;;;;;;;;;;5092395;28;20046;-57
2022/05/28 05:34:29;;;;;;;;;;;;;;;;;;5092037;28;20361;-56
2022/05/28 05:36:56;;;;;;;;;;;;;;;;;;5095955;28;19995;-52
2022/05/28 05:39:22;;;;;;;;;;;;;;;;;;5095435;28;20274;-45
2022/05/28 05:41:49;;;;;;;;;;;;;;;;;;5095741;28;20374;-45
2022/05/28 05:44:15;;;;;;;;;;;;;;;;;;5095789;28;19912;-48
2022/05/28 05:46:42;;;;;;;;;;;;;;;;;;5095540;28;19940;-48
2022/05/28 05:49:08;;;;;;;;;;;;;;;;;;5096165;28;20390;-47
2022/05/28 05:51:35;;;;;;;;;;;;;;;;;;5095912;28;20378;-51
2022/05/28 05:54:01;;;;;;;;;;;;;;;;;;5095891;28;20270;-48
2022/05/28 05:56:27;;;;;;;;;;;;;;;;;;5095387;28;19908;-48
2022/05/28 05:58:54;;;;;;;;;;;;;;;;;;5095711;28;19908;-51
2022/05/28 06:01:20;;;;;;;;;;;;;;;;;;5095304;28;19909;-46
2022/05/28 06:03:47;;;;;;;;;;;;;;;;;;5072896;28;19912;-45
2022/05/28 06:06:13;;;;;;;;;;;;;;;;;;5075899;28;19908;-49
2022/05/28 06:08:40;;;;;;;;;;;;;;;;;;5094470;28;20003;-50
2022/05/28 06:11:06;;;;;;;;;;;;;;;;;;5093217;28;19939;-47
2022/05/28 06:13:33;;;;;;;;;;;;;;;;;;5093294;28;20365;-44
2022/05/28 06:15:59;;;;;;;;;;;;;;;;;;5094551;28;20015;-43
2022/05/28 06:18:26;;;;;;;;;;;;;;;;;;5093841;28;19912;-52
2022/05/28 06:20:52;;;;;;;;;;;;;;;;;;5094874;28;19908;-50
2022/05/28 06:23:19;;;;;;;;;;;;;;;;;;5094758;28;20351;-46
2022/05/28 06:25:45;;;;;;;;;;;;;;;;;;5094539;28;20285;-46
2022/05/28 06:28:12;;;;;;;;;;;;;;;;;;5093827;28;20251;-44
2022/05/28 06:30:40;;;;;;;;;;;;;;;;;;5094544;28;20268;-46
2022/05/28 06:33:07;;;;;;;;;;;;;;;;;;5094820;28;19915;-50
2022/05/28 06:35:33;;;;;;;;;;;;;;;;;;5095082;28;20374;-54
2022/05/28 06:38:00;;;;;;;;;;;;;;;;;;5094370;28;20014;-46
2022/05/28 06:40:27;;;;;;;;;;;;;;;;;;5094279;28;19915;-51
2022/05/28 06:42:55;;;;;;;;;;;;;;;;;;5094403;28;19909;-49
2022/05/28 06:45:21;;;;;;;;;;;;;;;;;;5094392;28;20397;-47
2022/05/28 06:47:48;;;;;;;;;;;;;;;;;;5093326;28;20259;-49
2022/05/28 06:52:59;;;;;;;;;;;;;;;;;;5093574;28;19918;-48
2022/05/28 06:55:25;;;;;;;;;;;;;;;;;;5094028;28;20010;-54
2022/05/28 06:57:52;;;;;;;;;;;;;;;;;;5093663;28;19908;-48
2022/05/28 07:00:18;;;;;;;;;;;;;;;;;;5093236;28;20354;-46
2022/05/28 07:02:45;;;;;;;;;;;;;;;;;;5093283;28;19953;-50
2022/05/28 07:05:11;;;;;;;;;;;;;;;;;;5093723;28;19909;-47
2022/05/28 07:07:38;;;;;;;;;;;;;;;;;;5093744;28;20007;-52
2022/05/28 07:10:04;;;;;;;;;;;;;;;;;;5093686;28;19919;-51
2022/05/28 07:12:30;;;;;;;;;;;;;;;;;;5094068;28;19912;-55
2022/05/28 07:14:57;;;;;;;;;;;;;;;;;;5093195;28;19908;-53
2022/05/28 07:17:23;;;;;;;;;;;;;;;;;;5092848;28;20354;-53
2022/05/28 07:19:50;;;;;;;;;;;;;;;;;;5093807;28;20331;-51
2022/05/28 07:22:16;;;;;;;;;;;;;;;;;;5093129;28;19915;-52
2022/05/28 07:24:43;;;;;;;;;;;;;;;;;;5093359;28;19985;-52
2022/05/28 07:27:11;;;;;;;;;;;;;;;;;;5093781;28;19915;-54
2022/05/28 07:29:38;;;;;;;;;;;;;;;;;;5093483;28;19920;-51
2022/05/28 07:32:04;;;;;;;;;;;;;;;;;;5092944;28;19912;-50
2022/05/28 07:34:31;;;;;;;;;;;;;;;;;;5091249;28;20098;-50
2022/05/28 07:36:57;;;;;;;;;;;;;;;;;;5090248;28;19919;-47
2022/05/28 07:39:24;;;;;;;;;;;;;;;;;;5092256;28;19946;-53
2022/05/28 07:41:50;;;;;;;;;;;;;;;;;;5090508;28;19915;-48
2022/05/28 07:44:16;;;;;;;;;;;;;;;;;;5090229;28;19915;-49
2022/05/28 07:46:43;;;;;;;;;;;;;;;;;;5089905;28;19908;-53
2022/05/28 07:49:09;;;;;;;;;;;;;;;;;;5087681;28;19980;-54
2022/05/28 07:51:36;;;;;;;;;;;;;;;;;;5091132;28;19919;-52
2022/05/28 07:54:02;;;;;;;;;;;;;;;;;;5090244;28;19911;-48
2022/05/28 07:56:29;;;;;;;;;;;;;;;;;;5090096;28;20374;-48
2022/05/28 07:58:57;;;;;;;;;;;;;;;;;;5086684;28;19912;-48
2022/05/28 08:01:24;;;;;;;;;;;;;;;;;;5089825;28;19915;-51
2022/05/28 08:03:50;;;;;;;;;;;;;;;;;;5089829;28;19974;-49
2022/05/28 08:06:17;;;;;;;;;;;;;;;;;;5089786;28;19908;-53
2022/05/28 08:08:43;;;;;;;;;;;;;;;;;;5080732;28;19916;-48
2022/05/28 08:11:09;;;;;;;;;;;;;;;;;;5085325;28;19975;-54
2022/05/28 08:13:36;;;;;;;;;;;;;;;;;;5083063;28;19915;-47
2022/05/28 08:16:02;;;;;;;;;;;;;;;;;;5084787;28;19908;-47
2022/05/28 08:18:29;;;;;;;;;;;;;;;;;;5081476;28;19908;-50
2022/05/28 08:23:40;;;;;;;;;;;;;;;;;;5083941;28;20005;-40
2022/05/28 08:26:06;;;;;;;;;;;;;;;;;;5066555;28;19918;-44
2022/05/28 08:28:33;;;;;;;;;;;;;;;;;;5076491;28;19914;-53
2022/05/28 08:31:00;;;;;;;;;;;;;;;;;;5074233;28;19928;-45
2022/05/28 08:33:27;;;;;;;;;;;;;;;;;;5082334;28;19908;-54
2022/05/28 08:35:55;;;;;;;;;;;;;;;;;;5076844;28;19917;-44
2022/05/28 08:38:21;;;;;;;;;;;;;;;;;;5082194;28;20348;-50
2022/05/28 08:40:48;;;;;;;;;;;;;;;;;;5085118;28;20431;-48
2022/05/28 08:43:14;;;;;;;;;;;;;;;;;;5079818;28;19912;-52
2022/05/28 08:45:41;;;;;;;;;;;;;;;;;;5085167;28;19908;-59
2022/05/28 08:48:07;;;;;;;;;;;;;;;;;;5081694;28;19944;-52
2022/05/28 08:50:34;;;;;;;;;;;;;;;;;;5083028;28;19916;-44
2022/05/28 08:53:00;;;;;;;;;;;;;;;;;;5083235;28;19963;-50
2022/05/28 08:55:27;;;;;;;;;;;;;;;;;;5086448;28;19951;-55
2022/05/28 08:58:00;;;;;;;;;;;;;;;;;;5080698;28;20378;-48
2022/05/28 09:00:26;;;;;;;;;;;;;;;;;;5085540;28;20328;-47
2022/05/28 09:02:53;;;;;;;;;;;;;;;;;;5085217;28;19908;-54
2022/05/28 09:05:19;;;;;;;;;;;;;;;;;;5066592;28;20367;-53
2022/05/28 09:07:45;;;;;;;;;;;;;;;;;;5081874;28;20373;-51
2022/05/28 09:10:13;;;;;;;;;;;;;;;;;;5083264;28;19912;-48
2022/05/28 09:12:39;;;;;;;;;;;;;;;;;;5086170;28;19924;-48
2022/05/28 09:15:06;;;;;;;;;;;;;;;;;;5090931;28;20058;-46
2022/05/28 09:17:32;;;;;;;;;;;;;;;;;;5085351;28;19908;-46
2022/05/28 09:19:59;;;;;;;;;;;;;;;;;;5086125;28;20019;-43
2022/05/28 09:22:25;;;;;;;;;;;;;;;;;;5091067;28;20003;-55
2022/05/28 09:24:52;;;;;;;;;;;;;;;;;;5088100;28;19908;-51
2022/05/28 09:27:18;;;;;;;;;;;;;;;;;;5085409;28;19949;-53
2022/05/28 09:29:45;;;;;;;;;;;;;;;;;;5084389;28;19923;-54
2022/05/28 09:32:11;;;;;;;;;;;;;;;;;;5085996;28;20390;-51
2022/05/28 09:34:38;;;;;;;;;;;;;;;;;;5075082;28;19915;-45
2022/05/28 09:37:04;;;;;;;;;;;;;;;;;;5072050;28;19909;-44
2022/05/28 09:39:31;;;;;;;;;;;;;;;;;;5077422;28;19954;-50
2022/05/28 09:41:57;;;;;;;;;;;;;;;;;;5068903;28;19951;-46
2022/05/28 09:44:24;;;;;;;;;;;;;;;;;;5089025;28;19912;-49
2022/05/28 09:46:50;;;;;;;;;;;;;;;;;;5085896;28;19970;-50
2022/05/28 09:49:17;;;;;;;;;;;;;;;;;;5085321;28;19919;-52
2022/05/28 09:51:43;;;;;;;;;;;;;;;;;;5086528;28;19916;-56
2022/05/28 09:54:33;;;;;;;;;;;;;;;;;;5090722;28;19919;-56
2022/05/28 09:56:56;;;;;;;;;;;;;;;;;;5086954;28;19916;-50
2022/05/28 09:59:23;;;;;;;;;;;;;;;;;;5083689;28;19908;-50
2022/05/28 10:01:49;;;;;;;;;;;;;;;;;;5088483;28;19916;-51
2022/05/28 10:04:31;;;;;;;;;;;;;;;;;;5086629;28;19912;-56
2022/05/28 10:06:58;;;;;;;;;;;;;;;;;;5081787;28;19920;-50
2022/05/28 10:09:24;;;;;;;;;;;;;;;;;;5085508;28;19908;-54
2022/05/28 10:11:51;;;;;;;;;;;;;;;;;;5083081;28;19913;-45
2022/05/28 10:14:17;;;;;;;;;;;;;;;;;;5079449;28;19908;-43
2022/05/28 10:16:46;;;;;;;;;;;;;;;;;;5084410;28;20282;-53
2022/05/28 10:19:12;;;;;;;;;;;;;;;;;;5084429;28;19908;-53
2022/05/28 10:21:39;;;;;;;;;;;;;;;;;;5089617;28;19955;-53
2022/05/28 10:24:06;;;;;;;;;;;;;;;;;;5067712;28;19915;-48
2022/05/28 10:26:32;;;;;;;;;;;;;;;;;;5088487;28;20276;-56
2022/05/28 10:29:00;;;;;;;;;;;;;;;;;;5085476;28;19947;-44
2022/05/28 10:31:26;;;;;;;;;;;;;;;;;;5086656;28;19928;-39
2022/05/28 10:33:53;;;;;;;;;;;;;;;;;;5086249;28;19915;-50
2022/05/28 10:36:19;;;;;;;;;;;;;;;;;;5087427;28;19916;-57
2022/05/28 10:38:46;;;;;;;;;;;;;;;;;;5080465;28;19991;-55
2022/05/28 10:41:13;;;;;;;;;;;;;;;;;;5091137;28;19908;-55
2022/05/28 10:43:39;;;;;;;;;;;;;;;;;;5094861;28;19908;-59
2022/05/28 10:46:06;;;;;;;;;;;;;;;;;;5094662;28;19912;-47
2022/05/28 10:48:32;;;;;;;;;;;;;;;;;;5093985;28;19908;-59
2022/05/28 10:50:59;;;;;;;;;;;;;;;;;;5094139;28;19924;-50
2022/05/28 10:53:25;;;;;;;;;;;;;;;;;;5094469;28;19912;-59
2022/05/28 10:55:52;;;;;;;;;;;;;;;;;;5094982;28;19944;-56
2022/05/28 10:58:18;;;;;;;;;;;;;;;;;;5094922;28;20003;-51
2022/05/28 11:00:45;;;;;;;;;;;;;;;;;;5094573;28;19908;-59
2022/05/28 11:03:11;;;;;;;;;;;;;;;;;;5095080;28;19908;-59
2022/05/28 11:05:38;;;;;;;;;;;;;;;;;;5094833;28;19904;-47
2022/05/28 11:08:16;;;;;;;;;;;;;;;;;;;;;
2022/05/28 11:10:42;;;;;;;;;;;;;;;;;;5093616;28;19916;-51
2022/05/28 11:13:09;;;;;;;;;;;;;;;;;;5094631;28;20353;-48
2022/05/28 11:15:35;;;;;;;;;;;;;;;;;;5094351;28;19958;-55
2022/05/28 11:18:02;;;;;;;;;;;;;;;;;;5094283;28;20412;-54
2022/05/28 11:20:28;;;;;;;;;;;;;;;;;;5094042;28;20266;-51
2022/05/28 11:22:55;;;;;;;;;;;;;;;;;;5094241;28;19951;-47
2022/05/28 11:25:21;;;;;;;;;;;;;;;;;;5094716;28;19954;-46
2022/05/28 11:27:48;;;;;;;;;;;;;;;;;;5094081;28;19966;-58
2022/05/28 11:30:14;;;;;;;;;;;;;;;;;;5094046;28;19934;-52
2022/05/28 11:32:41;;;;;;;;;;;;;;;;;;5093547;28;20274;-51
2022/05/28 11:35:07;;;;;;;;;;;;;;;;;;5094099;28;19911;-55
2022/05/28 11:37:33;;;;;;;;;;;;;;;;;;5094068;28;19908;-51
2022/05/28 11:40:00;;;;;;;;;;;;;;;;;;5094002;28;19908;-52
2022/05/28 11:42:29;;;;;;;;;;;;;;;;;;5093766;28;19908;-46
2022/05/28 11:44:56;;;;;;;;;;;;;;;;;;5093787;28;19912;-49
2022/05/28 11:47:22;;;;;;;;;;;;;;;;;;5093865;28;20347;-55
2022/05/28 11:52:34;;;;;;;;;;;;;;;;;;5093385;28;19931;-58
2022/05/28 11:55:00;;;;;;;;;;;;;;;;;;5075114;28;19908;-46
2022/05/28 11:57:27;;;;;;;;;;;;;;;;;;5093298;28;19908;-58
2022/05/28 11:59:53;;;;;;;;;;;;;;;;;;5093510;28;20353;-50
2022/05/28 12:02:19;;;;;;;;;;;;;;;;;;5093598;28;19943;-50
2022/05/28 12:04:46;;;;;;;;;;;;;;;;;;5092815;28;19912;-55
2022/05/28 12:07:12;;;;;;;;;;;;;;;;;;5093036;28;19920;-50
2022/05/28 12:09:39;;;;;;;;;;;;;;;;;;5093248;28;20398;-48
2022/05/28 12:12:05;;;;;;;;;;;;;;;;;;5092959;28;19916;-50
2022/05/28 12:14:35;;;;;;;;;;;;;;;;;;5092336;28;20402;-54
2022/05/28 12:17:02;;;;;;;;;;;;;;;;;;5092990;28;19930;-53
2022/05/28 12:19:28;;;;;;;;;;;;;;;;;;5092911;28;20382;-54
2022/05/28 12:21:55;;;;;;;;;;;;;;;;;;5074976;28;20333;-50
2022/05/28 12:24:21;;;;;;;;;;;;;;;;;;5093178;28;20297;-51
2022/05/28 12:26:48;;;;;;;;;;;;;;;;;;5092819;28;19908;-49
2022/05/28 12:29:15;;;;;;;;;;;;;;;;;;5092636;28;20002;-39
2022/05/28 12:31:41;;;;;;;;;;;;;;;;;;5092779;28;19976;-52
2022/05/28 12:34:08;;;;;;;;;;;;;;;;;;5093263;28;19909;-45
2022/05/28 12:36:34;;;;;;;;;;;;;;;;;;5092502;28;19908;-47
2022/05/28 12:39:01;;;;;;;;;;;;;;;;;;5092854;28;19983;-43
2022/05/28 12:41:27;;;;;;;;;;;;;;;;;;5092984;28;19977;-46
2022/05/28 12:43:54;;;;;;;;;;;;;;;;;;5092640;28;19908;-41
2022/05/28 12:46:20;;;;;;;;;;;;;;;;;;5092085;28;19908;-47
2022/05/28 12:48:47;;;;;;;;;;;;;;;;;;5092253;28;19908;-48
2022/05/28 12:51:13;;;;;;;;;;;;;;;;;;5092793;28;19916;-43
2022/05/28 12:53:40;;;;;;;;;;;;;;;;;;5092741;28;19934;-42
2022/05/28 12:56:06;;;;;;;;;;;;;;;;;;5092807;28;19908;-50
2022/05/28 12:58:33;;;;;;;;;;;;;;;;;;5092350;28;20382;-47
2022/05/28 13:01:00;;;;;;;;;;;;;;;;;;5092802;28;19953;-48
2022/05/28 13:03:26;;;;;;;;;;;;;;;;;;5092915;28;19908;-41
2022/05/28 13:05:53;;;;;;;;;;;;;;;;;;5092904;28;20266;-48
2022/05/28 13:08:22;;;;;;;;;;;;;;;;;;5092466;28;20002;-50
2022/05/28 13:10:48;;;;;;;;;;;;;;;;;;5092469;28;20271;-41
2022/05/28 13:13:15;;;;;;;;;;;;;;;;;;5092509;28;19918;-43
2022/05/28 13:15:41;;;;;;;;;;;;;;;;;;5092816;28;20017;-51
2022/05/28 13:18:08;;;;;;;;;;;;;;;;;;5092755;28;20438;-53
2022/05/28 13:20:34;;;;;;;;;;;;;;;;;;5092386;28;19916;-51
2022/05/28 13:23:01;;;;;;;;;;;;;;;;;;5092562;28;19920;-43
2022/05/28 13:25:27;;;;;;;;;;;;;;;;;;5092551;28;19914;-45
2022/05/28 13:27:54;;;;;;;;;;;;;;;;;;5092824;28;19930;-54
2022/05/28 13:30:20;;;;;;;;;;;;;;;;;;5092706;28;19916;-50
2022/05/28 13:32:48;;;;;;;;;;;;;;;;;;5092398;28;20351;-43
2022/05/28 13:35:14;;;;;;;;;;;;;;;;;;5074306;28;19994;-46
2022/05/28 13:37:41;;;;;;;;;;;;;;;;;;5092723;28;20060;-56
2022/05/28 13:40:07;;;;;;;;;;;;;;;;;;5081774;28;19916;-51
2022/05/28 13:42:34;;;;;;;;;;;;;;;;;;5051766;28;20055;-51
2022/05/28 13:45:00;;;;;;;;;;;;;;;;;;5052253;28;19909;-44
2022/05/28 13:47:27;;;;;;;;;;;;;;;;;;5052220;28;19909;-57
2022/05/28 13:49:53;;;;;;;;;;;;;;;;;;5052087;28;20288;-47
2022/05/28 13:52:20;;;;;;;;;;;;;;;;;;5052431;28;19913;-53
2022/05/28 13:54:46;;;;;;;;;;;;;;;;;;5051941;28;19996;-55
2022/05/28 13:57:13;;;;;;;;;;;;;;;;;;5054437;28;19909;-48
2022/05/28 13:59:39;;;;;;;;;;;;;;;;;;5055591;28;19908;-50
2022/05/28 14:02:05;;;;;;;;;;;;;;;;;;5055892;28;19920;-48
2022/05/28 14:04:33;;;;;;;;;;;;;;;;;;5055351;28;19916;-40
2022/05/28 14:07:00;;;;;;;;;;;;;;;;;;5060962;28;19951;-52
2022/05/28 14:09:26;;;;;;;;;;;;;;;;;;5075872;28;20228;-56
2022/05/28 14:11:53;;;;;;;;;;;;;;;;;;5075687;28;19916;-45
2022/05/28 14:14:19;;;;;;;;;;;;;;;;;;5075842;28;19916;-48
2022/05/28 14:16:46;;;;;;;;;;;;;;;;;;5075359;28;19920;-55
2022/05/28 14:19:14;;;;;;;;;;;;;;;;;;5075376;28;20318;-53
2022/05/28 14:21:43;;;;;;;;;;;;;;;;;;5075214;28;20389;-41
2022/05/28 14:24:10;;;;;;;;;;;;;;;;;;5075339;28;19970;-52
2022/05/28 14:26:37;;;;;;;;;;;;;;;;;;5075059;28;19912;-42
2022/05/28 14:29:04;;;;;;;;;;;;;;;;;;5075318;28;19909;-49
2022/05/28 14:31:30;;;;;;;;;;;;;;;;;;5075445;28;19967;-52
2022/05/28 14:33:57;;;;;;;;;;;;;;;;;;5075416;28;19960;-44
2022/05/28 14:36:23;;;;;;;;;;;;;;;;;;5075447;28;19999;-46
2022/05/28 14:38:50;;;;;;;;;;;;;;;;;;5075179;28;19909;-55
2022/05/28 14:41:16;;;;;;;;;;;;;;;;;;5073999;28;19913;-48
2022/05/28 14:43:43;;;;;;;;;;;;;;;;;;5075346;28;19939;-56
2022/05/28 14:46:09;;;;;;;;;;;;;;;;;;5075002;28;19908;-47
2022/05/28 14:48:35;;;;;;;;;;;;;;;;;;5074286;28;20006;-51
2022/05/28 14:51:02;;;;;;;;;;;;;;;;;;5074911;28;20021;-45
2022/05/28 14:53:29;;;;;;;;;;;;;;;;;;5075116;28;19991;-56
2022/05/28 14:55:55;;;;;;;;;;;;;;;;;;5075225;28;19923;-52
2022/05/28 14:58:22;;;;;;;;;;;;;;;;;;5075007;28;19908;-52
2022/05/28 15:00:48;;;;;;;;;;;;;;;;;;5074697;28;19914;-51
2022/05/28 15:03:15;;;;;;;;;;;;;;;;;;5074713;28;19909;-55
2022/05/28 15:05:41;;;;;;;;;;;;;;;;;;5074549;28;19954;-52
2022/05/28 15:08:08;;;;;;;;;;;;;;;;;;5074018;28;20360;-55
2022/05/28 15:10:34;;;;;;;;;;;;;;;;;;5074369;28;19970;-46
2022/05/28 15:13:00;;;;;;;;;;;;;;;;;;5074729;28;19909;-45
2022/05/28 15:15:27;;;;;;;;;;;;;;;;;;5074524;28;19908;-52
2022/05/28 15:17:54;;;;;;;;;;;;;;;;;;5074470;28;19908;-48
2022/05/28 15:20:21;;;;;;;;;;;;;;;;;;5074252;28;19908;-50
2022/05/28 15:22:47;;;;;;;;;;;;;;;;;;5074354;28;19909;-54
2022/05/28 15:25:14;;;;;;;;;;;;;;;;;;5074621;28;19995;-48
2022/05/28 15:27:40;;;;;;;;;;;;;;;;;;5074453;28;19915;-50
2022/05/28 15:30:07;;;;;;;;;;;;;;;;;;5074174;28;19994;-59
2022/05/28 15:32:33;;;;;;;;;;;;;;;;;;5074184;28;19915;-45
2022/05/28 15:35:00;;;;;;;;;;;;;;;;;;5073915;28;19966;-50
2022/05/28 15:40:11;;;;;;;;;;;;;;;;;;5074027;28;19911;-45
2022/05/28 15:42:39;;;;;;;;;;;;;;;;;;5073804;28;19915;-44
2022/05/28 15:45:05;;;;;;;;;;;;;;;;;;5073965;28;20428;-48
2022/05/28 15:47:32;;;;;;;;;;;;;;;;;;5073904;28;19973;-49
2022/05/28 15:49:58;;;;;;;;;;;;;;;;;;5073708;28;20007;-50
2022/05/28 15:52:25;;;;;;;;;;;;;;;;;;5073795;28;20351;-47
2022/05/28 15:54:51;;;;;;;;;;;;;;;;;;5073874;28;20350;-49
2022/05/28 15:57:18;;;;;;;;;;;;;;;;;;5073799;28;20278;-48
2022/05/28 15:59:45;;;;;;;;;;;;;;;;;;5073698;28;19951;-50
2022/05/28 16:02:12;;;;;;;;;;;;;;;;;;5073629;28;20026;-50
2022/05/28 16:04:38;;;;;;;;;;;;;;;;;;5073159;28;19909;-49
2022/05/28 16:07:06;;;;;;;;;;;;;;;;;;5073713;28;19921;-44
2022/05/28 16:09:32;;;;;;;;;;;;;;;;;;5073564;28;19915;-50
2022/05/28 16:11:59;;;;;;;;;;;;;;;;;;5073666;28;20303;-56
2022/05/28 16:14:25;;;;;;;;;;;;;;;;;;5073253;28;19951;-43
2022/05/28 16:16:52;;;;;;;;;;;;;;;;;;5073294;28;19909;-51
2022/05/28 16:19:19;;;;;;;;;;;;;;;;;;5073296;28;19909;-57
2022/05/28 16:21:46;;;;;;;;;;;;;;;;;;5073119;28;19912;-45
2022/05/28 16:24:13;;;;;;;;;;;;;;;;;;5073278;28;19963;-49
2022/05/28 16:26:39;;;;;;;;;;;;;;;;;;5072978;28;19915;-58
2022/05/28 16:29:06;;;;;;;;;;;;;;;;;;5073250;28;20353;-45
2022/05/28 16:31:32;;;;;;;;;;;;;;;;;;5073133;28;19916;-55
2022/05/28 16:34:00;;;;;;;;;;;;;;;;;;5073126;28;20363;-44
2022/05/28 16:36:27;;;;;;;;;;;;;;;;;;5073177;28;19954;-41
2022/05/28 16:38:53;;;;;;;;;;;;;;;;;;5073051;28;19916;-47
2022/05/28 16:41:23;;;;;;;;;;;;;;;;;;5073142;28;19927;-40
2022/05/28 16:43:49;;;;;;;;;;;;;;;;;;5073326;28;19931;-48
2022/05/28 16:46:15;;;;;;;;;;;;;;;;;;5073094;28;19913;-43
2022/05/28 16:48:43;;;;;;;;;;;;;;;;;;5072771;28;20372;-44
2022/05/28 16:51:09;;;;;;;;;;;;;;;;;;5072988;28;19923;-42
2022/05/28 16:53:36;;;;;;;;;;;;;;;;;;5073178;28;19908;-40